createdAt,value
2022-10-14T00:00:05.537Z,17.59
2022-10-14T00:02:58.021Z,17.56
2022-10-14T00:05:44.114Z,17.48
2022-10-14T00:08:31.577Z,17.54
2022-10-14T00:11:23.245Z,17.55
2022-10-14T00:14:14.544Z,17.51
2022-10-14T00:17:00.648Z,17.55
2022-10-14T00:19:46.783Z,17.53
2022-10-14T00:22:32.622Z,17.50
2022-10-14T00:25:18.985Z,17.49
2022-10-14T00:28:05.013Z,17.53
2022-10-14T00:30:56.000Z,17.46
2022-10-14T00:33:42.444Z,17.48
2022-10-14T00:36:30.041Z,17.49
2022-10-14T00:39:16.451Z,17.43
2022-10-14T00:42:02.560Z,17.47
2022-10-14T00:44:51.480Z,17.49
2022-10-14T00:47:37.828Z,17.48
2022-10-14T00:50:27.445Z,17.46
2022-10-14T00:53:14.125Z,17.49
2022-10-14T00:56:00.397Z,17.45
2022-10-14T00:58:47.020Z,17.49
2022-10-14T01:01:33.113Z,17.45
2022-10-14T01:04:19.290Z,17.46
2022-10-14T01:07:08.271Z,17.48
2022-10-14T01:10:09.657Z,17.47
2022-10-14T01:13:08.953Z,17.42
2022-10-14T01:16:06.952Z,17.41
2022-10-14T01:19:00.842Z,17.47
2022-10-14T01:21:57.131Z,17.44
2022-10-14T01:25:13.801Z,17.42
2022-10-14T01:28:02.849Z,17.45
2022-10-14T01:30:50.676Z,17.36
2022-10-14T01:33:45.178Z,17.39
2022-10-14T01:36:46.257Z,17.39
2022-10-14T01:39:37.723Z,17.40
2022-10-14T01:42:27.428Z,17.41
2022-10-14T01:45:17.415Z,17.44
2022-10-14T01:48:05.114Z,17.40
2022-10-14T01:50:52.615Z,17.31
2022-10-14T01:53:43.230Z,17.41
2022-10-14T01:56:31.330Z,17.41
2022-10-14T01:59:18.923Z,17.43
2022-10-14T02:02:05.344Z,17.35
2022-10-14T02:04:52.260Z,17.39
2022-10-14T02:07:44.829Z,17.36
2022-10-14T02:10:34.801Z,17.37
2022-10-14T02:13:38.681Z,17.30
2022-10-14T02:16:40.718Z,17.22
2022-10-14T02:19:30.920Z,17.30
2022-10-14T02:22:37.737Z,17.26
2022-10-14T02:25:27.694Z,17.25
2022-10-14T02:28:18.215Z,17.27
2022-10-14T02:31:09.307Z,17.21
2022-10-14T02:33:58.155Z,17.13
2022-10-14T02:36:45.460Z,17.21
2022-10-14T02:39:35.918Z,17.19
2022-10-14T02:42:23.721Z,17.15
2022-10-14T02:45:11.147Z,17.16
2022-10-14T02:47:57.791Z,17.18
2022-10-14T02:50:44.095Z,17.15
2022-10-14T02:53:30.932Z,17.16
2022-10-14T02:56:18.345Z,17.08
2022-10-14T02:59:04.273Z,17.13
2022-10-14T03:01:50.890Z,17.13
2022-10-14T03:04:37.650Z,17.09
2022-10-14T03:07:24.554Z,17.11
2022-10-14T03:10:11.579Z,17.07
2022-10-14T03:12:58.857Z,17.08
2022-10-14T03:15:50.725Z,17.02
2022-10-14T03:18:38.393Z,17.02
2022-10-14T03:21:33.360Z,17.00
2022-10-14T03:24:19.400Z,17.02
2022-10-14T03:27:10.014Z,17.00
2022-10-14T03:29:56.442Z,16.98
2022-10-14T03:32:44.339Z,16.98
2022-10-14T03:36:00.248Z,16.98
2022-10-14T03:39:03.167Z,16.81
2022-10-14T03:42:04.467Z,16.94
2022-10-14T03:44:59.687Z,16.92
2022-10-14T03:47:47.713Z,16.91
2022-10-14T03:50:33.777Z,16.91
2022-10-14T03:53:20.160Z,16.95
2022-10-14T03:56:07.279Z,16.91
2022-10-14T03:58:54.213Z,16.89
2022-10-14T04:01:42.214Z,16.88
2022-10-14T04:04:38.697Z,16.86
2022-10-14T04:07:25.050Z,16.86
2022-10-14T04:10:16.853Z,16.82
2022-10-14T04:13:08.630Z,16.81
2022-10-14T04:15:56.999Z,16.82
2022-10-14T04:18:48.397Z,16.82
2022-10-14T04:21:39.398Z,16.76
2022-10-14T04:24:27.032Z,16.81
2022-10-14T04:27:18.236Z,16.77
2022-10-14T04:30:11.128Z,16.86
2022-10-14T04:33:07.976Z,16.82
2022-10-14T04:36:01.592Z,16.79
2022-10-14T04:38:53.599Z,16.80
2022-10-14T04:41:39.641Z,16.77
2022-10-14T04:44:26.029Z,16.75
2022-10-14T04:47:13.889Z,16.77
2022-10-14T04:50:00.258Z,16.75
2022-10-14T04:52:48.856Z,16.72
2022-10-14T04:55:34.929Z,16.64
2022-10-14T04:58:21.436Z,16.69
2022-10-14T05:01:08.498Z,16.70
2022-10-14T05:03:58.322Z,16.72
2022-10-14T05:06:45.376Z,16.70
2022-10-14T05:09:34.180Z,16.69
2022-10-14T05:12:21.104Z,16.64
2022-10-14T05:15:12.963Z,16.69
2022-10-14T05:18:07.631Z,16.64
2022-10-14T05:21:07.495Z,16.64
2022-10-14T05:24:16.567Z,16.69
2022-10-14T05:27:04.687Z,16.65
2022-10-14T05:29:51.770Z,16.71
2022-10-14T05:32:38.711Z,16.73
2022-10-14T05:35:53.659Z,16.74
2022-10-14T05:38:35.016Z,16.74
2022-10-14T05:41:22.246Z,16.74
2022-10-14T05:44:11.218Z,16.76
2022-10-14T05:54:30.827Z,15.79
2022-10-14T05:57:17.840Z,15.85
2022-10-14T06:00:05.656Z,15.95
2022-10-14T06:02:53.819Z,16.05
2022-10-14T06:05:40.508Z,16.19
2022-10-14T06:08:28.465Z,16.33
2022-10-14T06:11:14.368Z,16.34
2022-10-14T06:14:00.880Z,16.39
2022-10-14T06:16:49.926Z,16.48
2022-10-14T06:19:35.941Z,16.45
2022-10-14T06:22:22.424Z,16.53
2022-10-14T06:25:08.976Z,16.57
2022-10-14T06:27:55.270Z,16.56
2022-10-14T06:30:41.152Z,16.60
2022-10-14T06:33:28.844Z,16.56
2022-10-14T06:36:14.928Z,16.59
2022-10-14T06:39:01.190Z,16.62
2022-10-14T06:41:47.513Z,16.67
2022-10-14T06:44:38.524Z,16.71
2022-10-14T06:47:24.270Z,16.76
2022-10-14T06:50:10.134Z,16.75
2022-10-14T06:52:55.888Z,16.71
2022-10-14T06:55:41.779Z,16.74
2022-10-14T06:58:27.893Z,16.80
2022-10-14T07:01:13.915Z,16.81
2022-10-14T07:03:59.961Z,16.91
2022-10-14T07:06:45.770Z,16.95
2022-10-14T07:09:32.414Z,16.98
2022-10-14T07:12:18.738Z,17.02
2022-10-14T07:15:05.433Z,17.04
2022-10-14T07:17:51.211Z,17.08
2022-10-14T07:20:37.376Z,17.11
2022-10-14T07:23:23.231Z,17.13
2022-10-14T07:26:09.164Z,17.21
2022-10-14T07:28:55.605Z,17.25
2022-10-14T07:31:42.077Z,17.21
2022-10-14T07:34:28.389Z,17.34
2022-10-14T07:37:14.593Z,17.32
2022-10-14T07:40:00.664Z,17.41
2022-10-14T07:42:47.191Z,17.33
2022-10-14T07:45:36.179Z,17.39
2022-10-14T07:48:27.437Z,17.33
2022-10-14T07:51:19.004Z,17.44
2022-10-14T07:54:09.854Z,17.49
2022-10-14T07:56:57.949Z,17.50
2022-10-14T07:59:43.977Z,17.56
2022-10-14T08:02:30.041Z,17.54
2022-10-14T08:05:37.211Z,17.62
2022-10-14T08:08:24.321Z,17.71
2022-10-14T08:11:11.781Z,17.70
2022-10-14T08:13:59.004Z,17.82
2022-10-14T08:16:45.273Z,17.84
2022-10-14T08:19:31.617Z,17.88
2022-10-14T08:22:18.149Z,17.85
2022-10-14T08:25:04.266Z,17.93
2022-10-14T08:27:51.257Z,17.93
2022-10-14T08:30:37.448Z,17.97
2022-10-14T08:33:23.138Z,18.01
2022-10-14T08:36:09.273Z,18.08
2022-10-14T08:38:55.581Z,18.11
2022-10-14T08:41:56.620Z,18.05
2022-10-14T08:44:47.956Z,18.16
2022-10-14T08:47:40.791Z,18.15
2022-10-14T08:50:48.863Z,18.23
2022-10-14T08:53:45.332Z,18.21
2022-10-14T08:56:31.246Z,18.27
2022-10-14T08:59:20.121Z,18.23
2022-10-14T09:02:19.486Z,18.19
2022-10-14T09:05:06.624Z,18.25
2022-10-14T09:07:55.138Z,18.27
2022-10-14T09:10:42.526Z,18.13
2022-10-14T09:13:30.710Z,18.30
2022-10-14T09:16:21.739Z,18.34
2022-10-14T09:19:32.149Z,18.33
2022-10-14T09:22:18.309Z,18.38
2022-10-14T09:25:12.342Z,18.44
2022-10-14T09:27:58.343Z,18.47
2022-10-14T09:30:44.106Z,18.44
2022-10-14T09:33:31.397Z,18.49
2022-10-14T09:36:20.208Z,18.48
2022-10-14T09:39:06.485Z,18.48
2022-10-14T09:41:53.547Z,18.42
2022-10-14T09:44:39.645Z,18.38
2022-10-14T09:47:25.731Z,18.39
2022-10-14T09:50:21.965Z,18.36
2022-10-14T09:53:15.730Z,18.38
2022-10-14T09:56:04.314Z,18.32
2022-10-14T09:58:53.627Z,18.31
2022-10-14T10:01:42.599Z,18.39
2022-10-14T10:04:31.354Z,18.40
2022-10-14T10:07:30.695Z,18.33
2022-10-14T10:10:19.456Z,18.40
2022-10-14T10:13:22.201Z,18.46
2022-10-14T10:16:25.090Z,18.46
2022-10-14T10:19:27.605Z,18.39
2022-10-14T10:25:08.697Z,18.52
2022-10-14T10:27:58.209Z,18.54
2022-10-14T10:31:09.377Z,18.60
2022-10-14T10:34:34.622Z,18.57
2022-10-14T10:37:28.248Z,18.66
2022-10-14T10:40:44.050Z,18.70
2022-10-14T10:43:53.780Z,18.68
2022-10-14T10:46:51.007Z,18.76
2022-10-14T10:50:00.773Z,18.66
2022-10-14T10:53:04.060Z,18.72
2022-10-14T10:56:11.623Z,18.73
2022-10-14T10:59:24.755Z,18.72
2022-10-14T11:02:33.412Z,18.73
2022-10-14T11:05:37.993Z,18.78
2022-10-14T11:09:10.113Z,18.65
2022-10-14T11:12:20.720Z,18.77
2022-10-14T11:15:31.652Z,18.80
2022-10-14T11:18:32.666Z,18.80
2022-10-14T11:21:56.559Z,18.82
2022-10-14T11:24:54.733Z,18.85
2022-10-14T11:28:00.773Z,18.87
2022-10-14T11:30:51.928Z,18.90
2022-10-14T11:33:39.899Z,18.95
2022-10-14T11:36:55.384Z,18.91
2022-10-14T11:39:44.682Z,18.95
2022-10-14T11:42:52.572Z,18.89
2022-10-14T11:46:07.644Z,18.84
2022-10-14T11:48:59.548Z,18.91
2022-10-14T11:52:20.262Z,18.92
2022-10-14T11:55:29.154Z,18.88
2022-10-14T11:58:21.734Z,18.98
2022-10-14T12:01:08.053Z,18.97
2022-10-14T12:04:26.736Z,18.93
2022-10-14T12:07:12.393Z,19.03
2022-10-14T12:10:12.757Z,18.98
2022-10-14T12:12:59.699Z,19.01
2022-10-14T12:15:53.426Z,18.96
2022-10-14T12:18:39.575Z,18.94
2022-10-14T12:21:35.488Z,18.90
2022-10-14T12:24:24.495Z,18.89
2022-10-14T12:27:13.202Z,18.84
2022-10-14T12:29:59.533Z,18.88
2022-10-14T12:33:07.106Z,18.72
2022-10-14T12:36:01.451Z,18.81
2022-10-14T12:39:19.535Z,18.73
2022-10-14T12:42:12.309Z,18.71
2022-10-14T12:45:01.664Z,18.64
2022-10-14T12:47:47.798Z,18.72
2022-10-14T12:50:39.983Z,18.72
2022-10-14T12:53:31.098Z,18.64
2022-10-14T12:56:36.459Z,18.57
2022-10-14T12:59:28.963Z,18.58
2022-10-14T13:02:37.763Z,18.58
2022-10-14T13:05:30.450Z,18.52
2022-10-14T13:08:23.781Z,18.63
2022-10-14T13:11:13.150Z,18.61
2022-10-14T13:14:01.151Z,18.62
2022-10-14T13:16:53.353Z,18.60
2022-10-14T13:19:41.234Z,18.57
2022-10-14T13:22:34.521Z,18.59
2022-10-14T13:25:21.442Z,18.55
2022-10-14T13:28:51.723Z,18.51
2022-10-14T13:31:51.552Z,18.37
2022-10-14T13:34:54.853Z,18.43
2022-10-14T13:37:46.504Z,18.47
2022-10-14T13:40:50.738Z,18.33
2022-10-14T13:43:42.304Z,18.39
2022-10-14T13:46:42.646Z,18.31
2022-10-14T13:49:35.120Z,18.29
2022-10-14T13:52:25.894Z,18.24
2022-10-14T13:55:22.147Z,18.19
2022-10-14T13:58:18.369Z,18.13
2022-10-14T14:01:06.836Z,18.15
2022-10-14T14:03:57.216Z,18.11
2022-10-14T14:07:03.166Z,18.08
2022-10-14T14:09:56.937Z,18.13
2022-10-14T14:12:43.388Z,18.13
2022-10-14T14:15:30.894Z,18.16
2022-10-14T14:18:38.045Z,18.06
2022-10-14T14:21:34.308Z,18.11
2022-10-14T14:24:25.274Z,18.10
2022-10-14T14:27:14.091Z,18.12
2022-10-14T14:30:00.497Z,18.08
2022-10-14T14:32:46.622Z,18.05
2022-10-14T14:35:32.954Z,18.08
2022-10-14T14:38:31.558Z,18.07
2022-10-14T14:41:23.238Z,17.94
2022-10-14T14:44:25.612Z,17.83
2022-10-14T14:47:12.627Z,17.90
2022-10-14T14:50:24.933Z,17.86
2022-10-14T14:53:11.920Z,17.85
2022-10-14T14:56:00.535Z,17.69
2022-10-14T14:59:21.939Z,17.63
2022-10-14T15:02:15.761Z,17.70
2022-10-14T15:05:07.776Z,17.72
2022-10-14T15:07:54.306Z,17.70
2022-10-14T15:10:47.880Z,17.64
2022-10-14T15:13:40.152Z,17.71
2022-10-14T15:16:54.359Z,17.52
2022-10-14T15:19:40.133Z,17.63
2022-10-14T15:22:37.171Z,17.57
2022-10-14T15:25:25.260Z,17.60
2022-10-14T15:28:29.476Z,17.52
2022-10-14T15:31:18.962Z,17.53
2022-10-14T15:34:05.812Z,17.54
2022-10-14T15:36:52.933Z,17.51
2022-10-14T15:39:39.791Z,17.52
2022-10-14T15:42:26.540Z,17.52
2022-10-14T15:45:13.389Z,17.44
2022-10-14T15:48:02.288Z,17.51
2022-10-14T15:50:48.491Z,17.50
2022-10-14T15:53:34.507Z,17.51
2022-10-14T15:56:22.938Z,17.49
2022-10-14T15:59:09.173Z,17.43
2022-10-14T16:01:55.390Z,17.44
2022-10-14T16:05:00.715Z,17.44
2022-10-14T16:07:48.441Z,17.40
2022-10-14T16:10:34.561Z,17.39
2022-10-14T16:13:21.193Z,17.43
2022-10-14T16:16:09.619Z,17.39
2022-10-14T16:18:56.229Z,17.37
2022-10-14T16:21:42.808Z,17.31
2022-10-14T16:24:28.799Z,17.32
2022-10-14T16:27:15.697Z,17.19
2022-10-14T16:30:01.945Z,17.24
2022-10-14T16:32:48.597Z,17.24
2022-10-14T16:35:34.517Z,17.17
2022-10-14T16:38:20.901Z,17.18
2022-10-14T16:41:10.027Z,17.13
2022-10-14T16:43:56.162Z,17.10
2022-10-14T16:47:00.655Z,17.09
2022-10-14T16:49:49.310Z,16.99
2022-10-14T16:52:54.139Z,16.92
2022-10-14T16:55:40.412Z,16.92
2022-10-14T16:58:27.825Z,16.87
2022-10-14T17:01:13.587Z,16.87
2022-10-14T17:03:59.547Z,16.83
2022-10-14T17:06:46.686Z,16.74
2022-10-14T17:09:39.482Z,16.69
2022-10-14T17:12:26.622Z,16.57
2022-10-14T17:15:12.780Z,16.60
2022-10-14T17:17:59.154Z,16.55
2022-10-14T17:20:45.177Z,16.49
2022-10-14T17:23:31.518Z,16.47
2022-10-14T17:26:18.820Z,16.41
2022-10-14T17:29:05.088Z,16.35
2022-10-14T17:31:51.579Z,16.35
2022-10-14T17:34:37.847Z,16.32
2022-10-14T17:37:23.823Z,16.27
2022-10-14T17:40:10.258Z,16.26
2022-10-14T17:43:00.063Z,16.20
2022-10-14T17:45:46.594Z,16.19
2022-10-14T17:48:35.685Z,16.17
2022-10-14T17:51:25.629Z,16.09
2022-10-14T17:54:12.576Z,16.04
2022-10-14T17:56:58.747Z,16.01
2022-10-14T17:59:44.600Z,15.92
2022-10-14T18:02:30.539Z,15.94
2022-10-14T18:05:16.551Z,15.90
2022-10-14T18:08:02.648Z,15.85
2022-10-14T18:10:48.685Z,15.82
2022-10-14T18:13:35.150Z,15.77
2022-10-14T18:16:21.617Z,15.68
2022-10-14T18:19:09.275Z,15.70
2022-10-14T18:21:55.100Z,15.65
2022-10-14T18:24:41.202Z,15.61
2022-10-14T18:27:27.266Z,15.57
2022-10-14T18:30:13.509Z,15.44
2022-10-14T18:32:59.753Z,15.42
2022-10-14T18:35:48.693Z,15.45
2022-10-14T18:38:35.779Z,15.34
2022-10-14T18:41:22.719Z,15.39
2022-10-14T18:44:11.632Z,15.36
2022-10-14T18:46:57.762Z,15.35
2022-10-14T18:49:43.697Z,15.27
2022-10-14T18:52:29.722Z,15.25
2022-10-14T18:55:15.877Z,15.16
2022-10-14T18:58:02.098Z,15.22
2022-10-14T19:00:48.382Z,15.21
2022-10-14T19:03:35.322Z,15.18
2022-10-14T19:06:22.395Z,15.11
2022-10-14T19:09:12.562Z,15.12
2022-10-14T19:11:59.206Z,14.94
2022-10-14T19:14:45.148Z,15.01
2022-10-14T19:17:30.933Z,15.01
2022-10-14T19:20:16.743Z,14.94
2022-10-14T19:23:02.836Z,14.88
2022-10-14T19:25:49.040Z,14.89
2022-10-14T19:28:35.094Z,14.84
2022-10-14T19:31:24.822Z,14.79
2022-10-14T19:34:13.839Z,14.73
2022-10-14T19:37:00.270Z,14.57
2022-10-14T19:39:46.101Z,14.62
2022-10-14T19:42:32.067Z,14.60
2022-10-14T19:45:18.004Z,14.53
2022-10-14T19:48:05.982Z,14.30
2022-10-14T19:50:52.570Z,14.33
2022-10-14T19:53:39.266Z,14.33
2022-10-14T19:56:26.290Z,14.28
2022-10-14T19:59:13.610Z,14.25
2022-10-14T20:01:59.900Z,14.20
2022-10-14T20:04:45.826Z,14.17
2022-10-14T20:07:31.770Z,14.19
2022-10-14T20:10:17.897Z,14.13
2022-10-14T20:13:03.981Z,14.08
2022-10-14T20:15:54.708Z,13.98
2022-10-14T20:18:40.823Z,13.97
2022-10-14T20:21:26.944Z,13.93
2022-10-14T20:24:13.485Z,13.93
2022-10-14T20:26:59.705Z,13.89
2022-10-14T20:29:45.876Z,13.88
2022-10-14T20:32:32.241Z,13.86
2022-10-14T20:35:18.561Z,13.81
2022-10-14T20:38:04.499Z,13.80
2022-10-14T20:40:50.816Z,13.80
2022-10-14T20:43:37.027Z,13.72
2022-10-14T20:46:24.778Z,13.62
2022-10-14T20:49:11.766Z,13.72
2022-10-14T20:51:58.161Z,13.69
2022-10-14T20:54:44.055Z,13.65
2022-10-14T20:57:30.292Z,13.62
2022-10-14T21:00:16.330Z,13.65
2022-10-14T21:03:02.558Z,13.61
2022-10-14T21:05:48.602Z,13.60
2022-10-14T21:08:35.841Z,13.57
2022-10-14T21:11:23.679Z,13.54
2022-10-14T21:14:10.628Z,13.57
2022-10-14T21:16:56.817Z,13.52
2022-10-14T21:19:42.577Z,13.48
2022-10-14T21:22:28.556Z,13.50
2022-10-14T21:25:14.639Z,13.49
2022-10-14T21:28:00.848Z,13.46
2022-10-14T21:30:46.744Z,13.35
2022-10-14T21:33:32.803Z,13.38
2022-10-14T21:36:18.793Z,13.39
2022-10-14T21:39:15.554Z,13.32
2022-10-14T21:42:01.699Z,13.34
2022-10-14T21:44:47.584Z,13.32
2022-10-14T21:47:33.550Z,13.28
2022-10-14T21:50:20.319Z,13.31
2022-10-14T21:53:06.304Z,13.23
2022-10-14T21:55:52.880Z,13.25
2022-10-14T21:58:39.448Z,13.24
2022-10-14T22:01:28.645Z,13.25
2022-10-14T22:04:14.386Z,13.13
2022-10-14T22:09:46.774Z,13.18
2022-10-14T22:12:32.788Z,13.20
2022-10-14T22:15:18.833Z,13.12
2022-10-14T22:18:05.057Z,13.13
2022-10-14T22:20:59.917Z,13.01
2022-10-14T22:23:47.250Z,13.06
2022-10-14T22:26:33.675Z,13.08
2022-10-14T22:29:19.958Z,13.05
2022-10-14T22:32:05.830Z,12.93
2022-10-14T22:34:51.844Z,12.94
2022-10-14T22:37:37.811Z,12.97
2022-10-14T22:40:23.877Z,12.99
2022-10-14T22:43:10.096Z,12.93
2022-10-14T22:46:10.606Z,12.81
2022-10-14T22:48:57.639Z,12.85
2022-10-14T22:51:43.771Z,12.79
2022-10-14T22:54:29.748Z,12.65
2022-10-14T22:57:15.597Z,12.73
2022-10-14T23:00:01.645Z,12.70
2022-10-14T23:02:47.875Z,12.64
2022-10-14T23:05:33.784Z,12.65
2022-10-14T23:08:21.157Z,12.53
2022-10-14T23:11:07.679Z,12.63
2022-10-14T23:13:54.229Z,12.56
2022-10-14T23:16:40.386Z,12.52
2022-10-14T23:19:26.349Z,12.46
2022-10-14T23:22:12.254Z,12.45
2022-10-14T23:24:58.079Z,12.40
2022-10-14T23:27:44.151Z,12.39
2022-10-14T23:30:29.945Z,12.31
2022-10-14T23:33:16.017Z,12.33
2022-10-14T23:36:06.454Z,12.25
2022-10-14T23:38:55.358Z,12.22
2022-10-14T23:41:41.572Z,12.09
2022-10-14T23:44:27.838Z,12.20
2022-10-14T23:47:13.705Z,12.13
2022-10-14T23:49:59.569Z,12.01
2022-10-14T23:52:46.014Z,11.99
2022-10-14T23:55:32.096Z,12.03
2022-10-14T23:58:18.316Z,11.99
